Crestwood, Missouri
Current Conditions -  °F | °C
As of 9:53 PM on Wednesday 28 Jan 2015 (Local Time) from KCPS Reporting Station
Few Clouds Few Clouds  
Wind Chill: 39°   Ceiling: Unl
Heat Index: 44°   Visibility: 10mi
Dew Point: 34°   Wind: 9mph
Humidity: 68%   Direction: 150°SSE
Pressure: 29.87"   Gusts: NA
Location:  38.5502°N, 90.379°W
Report Text: KCPS 290353Z 15008KT 10SM FEW110 07/01 A2987 RMK AO2 SLP118 T00670011
Loading
Personal Weather Stations






























Interactive Weather Map New forecast layout! Learn more

10-Day Weather Forecast

Advertisements
Track Severe Weather on mobile